sensor_id;sensor_type;location;lat;lon;timestamp;P1;durP1;ratioP1;P2;durP2;ratioP2
25349;SDS011;13302;48.796;11.978;2023-02-15T00:02:43;11.27;;;10.17;;
25349;SDS011;13302;48.796;11.978;2023-02-15T00:05:30;11.73;;;10.57;;
25349;SDS011;13302;48.796;11.978;2023-02-15T00:08:18;11.83;;;10.67;;
25349;SDS011;13302;48.796;11.978;2023-02-15T00:13:56;10.77;;;9.67;;
25349;SDS011;13302;48.796;11.978;2023-02-15T00:16:45;10.80;;;9.80;;
25349;SDS011;13302;48.796;11.978;2023-02-15T00:19:33;10.53;;;9.63;;
25349;SDS011;13302;48.796;11.978;2023-02-15T00:22:20;11.10;;;10.00;;
25349;SDS011;13302;48.796;11.978;2023-02-15T00:25:07;11.37;;;10.37;;
25349;SDS011;13302;48.796;11.978;2023-02-15T00:27:54;12.03;;;10.93;;
25349;SDS011;13302;48.796;11.978;2023-02-15T00:30:41;12.43;;;11.23;;
25349;SDS011;13302;48.796;11.978;2023-02-15T00:33:28;12.23;;;11.13;;
25349;SDS011;13302;48.796;11.978;2023-02-15T00:36:15;11.90;;;10.80;;
25349;SDS011;13302;48.796;11.978;2023-02-15T00:39:02;11.50;;;10.50;;
25349;SDS011;13302;48.796;11.978;2023-02-15T00:41:51;12.30;;;11.13;;
25349;SDS011;13302;48.796;11.978;2023-02-15T00:44:38;12.47;;;11.27;;
25349;SDS011;13302;48.796;11.978;2023-02-15T00:47:25;12.00;;;10.90;;
25349;SDS011;13302;48.796;11.978;2023-02-15T00:50:12;11.50;;;10.43;;
25349;SDS011;13302;48.796;11.978;2023-02-15T00:52:59;12.00;;;10.90;;
25349;SDS011;13302;48.796;11.978;2023-02-15T00:55:46;11.13;;;10.13;;
25349;SDS011;13302;48.796;11.978;2023-02-15T00:58:33;11.87;;;10.77;;
25349;SDS011;13302;48.796;11.978;2023-02-15T01:01:20;12.20;;;11.00;;
25349;SDS011;13302;48.796;11.978;2023-02-15T01:04:10;12.93;;;11.63;;
25349;SDS011;13302;48.796;11.978;2023-02-15T01:06:57;12.00;;;10.90;;
25349;SDS011;13302;48.796;11.978;2023-02-15T01:09:44;12.67;;;11.37;;
25349;SDS011;13302;48.796;11.978;2023-02-15T01:12:31;12.30;;;11.10;;
25349;SDS011;13302;48.796;11.978;2023-02-15T01:15:18;12.17;;;11.00;;
25349;SDS011;13302;48.796;11.978;2023-02-15T01:18:05;12.67;;;11.53;;
25349;SDS011;13302;48.796;11.978;2023-02-15T01:20:52;12.27;;;11.13;;
25349;SDS011;13302;48.796;11.978;2023-02-15T01:23:40;12.53;;;11.33;;
25349;SDS011;13302;48.796;11.978;2023-02-15T01:26:28;12.53;;;11.33;;
25349;SDS011;13302;48.796;11.978;2023-02-15T01:29:15;13.47;;;12.07;;
25349;SDS011;13302;48.796;11.978;2023-02-15T01:32:02;12.40;;;11.27;;
25349;SDS011;13302;48.796;11.978;2023-02-15T01:34:50;12.93;;;11.70;;
25349;SDS011;13302;48.796;11.978;2023-02-15T01:37:36;12.23;;;11.03;;
25349;SDS011;13302;48.796;11.978;2023-02-15T01:40:24;13.13;;;11.83;;
25349;SDS011;13302;48.796;11.978;2023-02-15T01:43:12;11.90;;;10.80;;
25349;SDS011;13302;48.796;11.978;2023-02-15T01:45:59;12.67;;;11.40;;
25349;SDS011;13302;48.796;11.978;2023-02-15T01:48:47;13.07;;;11.70;;
25349;SDS011;13302;48.796;11.978;2023-02-15T01:51:37;12.37;;;11.13;;
25349;SDS011;13302;48.796;11.978;2023-02-15T01:54:32;13.30;;;12.07;;
25349;SDS011;13302;48.796;11.978;2023-02-15T01:57:24;13.33;;;12.03;;
25349;SDS011;13302;48.796;11.978;2023-02-15T02:00:13;12.00;;;10.80;;
25349;SDS011;13302;48.796;11.978;2023-02-15T02:03:01;12.00;;;10.90;;
25349;SDS011;13302;48.796;11.978;2023-02-15T02:05:49;12.97;;;11.67;;
25349;SDS011;13302;48.796;11.978;2023-02-15T02:08:36;13.00;;;11.70;;
25349;SDS011;13302;48.796;11.978;2023-02-15T02:11:24;12.50;;;11.30;;
25349;SDS011;13302;48.796;11.978;2023-02-15T02:14:11;12.70;;;11.50;;
25349;SDS011;13302;48.796;11.978;2023-02-15T02:23:24;12.83;;;11.53;;
25349;SDS011;13302;48.796;11.978;2023-02-15T02:26:32;11.87;;;10.67;;
25349;SDS011;13302;48.796;11.978;2023-02-15T02:36:08;10.80;;;9.80;;
25349;SDS011;13302;48.796;11.978;2023-02-15T02:39:08;11.13;;;10.13;;
25349;SDS011;13302;48.796;11.978;2023-02-15T02:42:13;11.60;;;10.50;;
25349;SDS011;13302;48.796;11.978;2023-02-15T02:45:09;10.47;;;9.37;;
25349;SDS011;13302;48.796;11.978;2023-02-15T02:48:00;10.77;;;9.77;;
25349;SDS011;13302;48.796;11.978;2023-02-15T02:50:52;11.83;;;10.73;;
25349;SDS011;13302;48.796;11.978;2023-02-15T02:53:40;11.47;;;10.40;;
25349;SDS011;13302;48.796;11.978;2023-02-15T02:56:28;12.33;;;11.13;;
25349;SDS011;13302;48.796;11.978;2023-02-15T02:59:20;12.27;;;10.97;;
25349;SDS011;13302;48.796;11.978;2023-02-15T03:02:26;11.60;;;10.50;;
25349;SDS011;13302;48.796;11.978;2023-02-15T03:05:20;11.60;;;10.50;;
25349;SDS011;13302;48.796;11.978;2023-02-15T03:08:10;10.47;;;9.47;;
25349;SDS011;13302;48.796;11.978;2023-02-15T03:11:08;11.27;;;10.17;;
25349;SDS011;13302;48.796;11.978;2023-02-15T03:13:55;10.83;;;9.80;;
25349;SDS011;13302;48.796;11.978;2023-02-15T03:16:44;12.93;;;10.60;;
25349;SDS011;13302;48.796;11.978;2023-02-15T03:19:35;10.53;;;9.60;;
25349;SDS011;13302;48.796;11.978;2023-02-15T03:22:38;12.07;;;10.93;;
25349;SDS011;13302;48.796;11.978;2023-02-15T03:25:36;10.83;;;9.83;;
25349;SDS011;13302;48.796;11.978;2023-02-15T03:28:31;10.90;;;9.90;;
25349;SDS011;13302;48.796;11.978;2023-02-15T03:31:23;11.00;;;9.90;;
25349;SDS011;13302;48.796;11.978;2023-02-15T03:34:15;10.77;;;9.67;;
25349;SDS011;13302;48.796;11.978;2023-02-15T03:40:39;10.53;;;9.53;;
25349;SDS011;13302;48.796;11.978;2023-02-15T03:43:54;11.07;;;9.97;;
25349;SDS011;13302;48.796;11.978;2023-02-15T03:49:42;9.73;;;8.80;;
25349;SDS011;13302;48.796;11.978;2023-02-15T03:52:35;10.70;;;9.70;;
25349;SDS011;13302;48.796;11.978;2023-02-15T03:55:23;11.33;;;9.97;;
25349;SDS011;13302;48.796;11.978;2023-02-15T03:58:10;10.27;;;9.37;;
25349;SDS011;13302;48.796;11.978;2023-02-15T04:04:45;11.33;;;10.20;;
25349;SDS011;13302;48.796;11.978;2023-02-15T04:07:33;10.83;;;9.73;;
25349;SDS011;13302;48.796;11.978;2023-02-15T04:10:20;10.77;;;9.67;;
25349;SDS011;13302;48.796;11.978;2023-02-15T04:13:30;12.03;;;10.93;;
25349;SDS011;13302;48.796;11.978;2023-02-15T04:16:18;10.03;;;9.07;;
25349;SDS011;13302;48.796;11.978;2023-02-15T04:19:05;10.60;;;9.57;;
25349;SDS011;13302;48.796;11.978;2023-02-15T04:22:10;11.03;;;9.87;;
25349;SDS011;13302;48.796;11.978;2023-02-15T04:25:15;10.93;;;9.87;;
25349;SDS011;13302;48.796;11.978;2023-02-15T04:28:03;11.57;;;10.47;;
25349;SDS011;13302;48.796;11.978;2023-02-15T04:30:50;11.63;;;10.50;;
25349;SDS011;13302;48.796;11.978;2023-02-15T04:33:37;11.40;;;10.30;;
25349;SDS011;13302;48.796;11.978;2023-02-15T04:36:24;11.23;;;10.13;;
25349;SDS011;13302;48.796;11.978;2023-02-15T04:39:12;11.00;;;9.90;;
25349;SDS011;13302;48.796;11.978;2023-02-15T04:42:00;11.80;;;10.60;;
25349;SDS011;13302;48.796;11.978;2023-02-15T04:44:47;11.97;;;10.73;;
25349;SDS011;13302;48.796;11.978;2023-02-15T04:47:34;13.30;;;12.00;;
25349;SDS011;13302;48.796;11.978;2023-02-15T04:50:21;11.37;;;10.27;;
25349;SDS011;13302;48.796;11.978;2023-02-15T04:53:08;12.07;;;10.87;;
25349;SDS011;13302;48.796;11.978;2023-02-15T04:55:55;11.23;;;10.13;;
25349;SDS011;13302;48.796;11.978;2023-02-15T04:58:42;12.10;;;10.83;;
25349;SDS011;13302;48.796;11.978;2023-02-15T05:01:29;12.10;;;10.90;;
25349;SDS011;13302;48.796;11.978;2023-02-15T05:04:17;11.60;;;10.53;;
25349;SDS011;13302;48.796;11.978;2023-02-15T05:07:04;11.37;;;10.27;;
25349;SDS011;13302;48.796;11.978;2023-02-15T05:09:51;11.83;;;10.70;;
25349;SDS011;13302;48.796;11.978;2023-02-15T05:12:38;12.33;;;11.13;;
25349;SDS011;13302;48.796;11.978;2023-02-15T05:15:25;11.57;;;10.47;;
25349;SDS011;13302;48.796;11.978;2023-02-15T05:18:12;12.17;;;10.97;;
25349;SDS011;13302;48.796;11.978;2023-02-15T05:20:59;11.97;;;10.77;;
25349;SDS011;13302;48.796;11.978;2023-02-15T05:23:46;10.63;;;9.53;;
25349;SDS011;13302;48.796;11.978;2023-02-15T05:26:33;11.43;;;10.33;;
25349;SDS011;13302;48.796;11.978;2023-02-15T05:29:39;11.40;;;10.03;;
25349;SDS011;13302;48.796;11.978;2023-02-15T05:32:26;11.50;;;10.30;;
25349;SDS011;13302;48.796;11.978;2023-02-15T05:35:14;12.63;;;11.33;;
25349;SDS011;13302;48.796;11.978;2023-02-15T05:38:02;12.50;;;11.27;;
25349;SDS011;13302;48.796;11.978;2023-02-15T05:40:50;12.93;;;11.63;;
25349;SDS011;13302;48.796;11.978;2023-02-15T05:43:38;11.47;;;10.33;;
25349;SDS011;13302;48.796;11.978;2023-02-15T05:46:25;11.50;;;10.33;;
25349;SDS011;13302;48.796;11.978;2023-02-15T05:49:12;11.97;;;10.77;;
25349;SDS011;13302;48.796;11.978;2023-02-15T05:51:59;12.70;;;11.33;;
25349;SDS011;13302;48.796;11.978;2023-02-15T05:54:46;11.80;;;10.60;;
25349;SDS011;13302;48.796;11.978;2023-02-15T05:57:34;11.50;;;10.30;;
25349;SDS011;13302;48.796;11.978;2023-02-15T06:00:21;12.90;;;11.27;;
25349;SDS011;13302;48.796;11.978;2023-02-15T06:03:08;11.97;;;10.77;;
25349;SDS011;13302;48.796;11.978;2023-02-15T06:05:55;11.67;;;10.50;;
25349;SDS011;13302;48.796;11.978;2023-02-15T06:08:42;11.50;;;10.40;;
25349;SDS011;13302;48.796;11.978;2023-02-15T06:11:29;12.63;;;11.33;;
25349;SDS011;13302;48.796;11.978;2023-02-15T06:14:17;11.37;;;10.27;;
25349;SDS011;13302;48.796;11.978;2023-02-15T06:17:04;12.07;;;10.87;;
25349;SDS011;13302;48.796;11.978;2023-02-15T06:19:51;13.10;;;11.70;;
25349;SDS011;13302;48.796;11.978;2023-02-15T06:22:37;11.67;;;10.53;;
25349;SDS011;13302;48.796;11.978;2023-02-15T06:25:24;12.30;;;11.10;;
25349;SDS011;13302;48.796;11.978;2023-02-15T06:28:12;11.77;;;10.57;;
25349;SDS011;13302;48.796;11.978;2023-02-15T06:31:00;13.07;;;11.87;;
25349;SDS011;13302;48.796;11.978;2023-02-15T06:33:47;11.30;;;10.20;;
25349;SDS011;13302;48.796;11.978;2023-02-15T06:36:34;10.97;;;9.90;;
25349;SDS011;13302;48.796;11.978;2023-02-15T06:39:21;11.53;;;10.33;;
25349;SDS011;13302;48.796;11.978;2023-02-15T06:42:08;11.50;;;10.40;;
25349;SDS011;13302;48.796;11.978;2023-02-15T06:44:55;12.30;;;11.00;;
25349;SDS011;13302;48.796;11.978;2023-02-15T06:47:42;11.17;;;10.03;;
25349;SDS011;13302;48.796;11.978;2023-02-15T06:50:29;11.57;;;10.37;;
25349;SDS011;13302;48.796;11.978;2023-02-15T06:53:16;11.40;;;10.20;;
25349;SDS011;13302;48.796;11.978;2023-02-15T06:56:04;10.70;;;9.70;;
25349;SDS011;13302;48.796;11.978;2023-02-15T06:58:53;10.47;;;9.37;;
25349;SDS011;13302;48.796;11.978;2023-02-15T07:01:40;10.70;;;9.70;;
25349;SDS011;13302;48.796;11.978;2023-02-15T07:04:27;10.40;;;9.33;;
25349;SDS011;13302;48.796;11.978;2023-02-15T07:07:16;10.53;;;9.43;;
25349;SDS011;13302;48.796;11.978;2023-02-15T07:10:03;11.13;;;10.10;;
25349;SDS011;13302;48.796;11.978;2023-02-15T07:12:50;11.40;;;10.20;;
25349;SDS011;13302;48.796;11.978;2023-02-15T07:15:37;9.20;;;8.37;;
25349;SDS011;13302;48.796;11.978;2023-02-15T07:18:24;9.80;;;8.90;;
25349;SDS011;13302;48.796;11.978;2023-02-15T07:21:11;9.53;;;8.63;;
25349;SDS011;13302;48.796;11.978;2023-02-15T07:23:58;10.10;;;9.20;;
25349;SDS011;13302;48.796;11.978;2023-02-15T07:26:45;9.43;;;8.53;;
25349;SDS011;13302;48.796;11.978;2023-02-15T07:29:32;10.37;;;9.20;;
25349;SDS011;13302;48.796;11.978;2023-02-15T07:32:19;9.87;;;8.97;;
25349;SDS011;13302;48.796;11.978;2023-02-15T07:35:07;9.93;;;9.03;;
25349;SDS011;13302;48.796;11.978;2023-02-15T07:37:53;10.13;;;9.17;;
25349;SDS011;13302;48.796;11.978;2023-02-15T07:40:40;10.40;;;9.50;;
25349;SDS011;13302;48.796;11.978;2023-02-15T07:43:28;10.67;;;9.67;;
25349;SDS011;13302;48.796;11.978;2023-02-15T07:46:16;10.23;;;9.23;;
25349;SDS011;13302;48.796;11.978;2023-02-15T07:49:03;11.03;;;10.03;;
25349;SDS011;13302;48.796;11.978;2023-02-15T07:51:50;10.43;;;9.43;;
25349;SDS011;13302;48.796;11.978;2023-02-15T07:54:37;10.03;;;9.00;;
25349;SDS011;13302;48.796;11.978;2023-02-15T07:57:24;9.80;;;8.83;;
25349;SDS011;13302;48.796;11.978;2023-02-15T08:00:11;9.37;;;8.47;;
25349;SDS011;13302;48.796;11.978;2023-02-15T08:02:59;9.40;;;8.47;;
25349;SDS011;13302;48.796;11.978;2023-02-15T08:06:02;8.87;;;8.03;;
25349;SDS011;13302;48.796;11.978;2023-02-15T08:08:49;8.97;;;8.17;;
25349;SDS011;13302;48.796;11.978;2023-02-15T08:11:37;9.00;;;8.20;;
25349;SDS011;13302;48.796;11.978;2023-02-15T08:14:26;8.73;;;7.83;;
25349;SDS011;13302;48.796;11.978;2023-02-15T08:17:14;8.93;;;8.23;;
25349;SDS011;13302;48.796;11.978;2023-02-15T08:20:00;8.93;;;8.13;;
25349;SDS011;13302;48.796;11.978;2023-02-15T08:22:47;9.47;;;8.60;;
25349;SDS011;13302;48.796;11.978;2023-02-15T08:25:34;9.33;;;8.43;;
25349;SDS011;13302;48.796;11.978;2023-02-15T08:28:21;9.97;;;8.97;;
25349;SDS011;13302;48.796;11.978;2023-02-15T08:31:09;10.83;;;9.70;;
25349;SDS011;13302;48.796;11.978;2023-02-15T08:33:59;11.07;;;9.97;;
25349;SDS011;13302;48.796;11.978;2023-02-15T08:36:46;9.57;;;8.63;;
25349;SDS011;13302;48.796;11.978;2023-02-15T08:39:33;9.40;;;8.53;;
25349;SDS011;13302;48.796;11.978;2023-02-15T08:42:20;9.43;;;8.57;;
25349;SDS011;13302;48.796;11.978;2023-02-15T08:45:07;10.17;;;9.27;;
25349;SDS011;13302;48.796;11.978;2023-02-15T08:47:55;10.47;;;9.47;;
25349;SDS011;13302;48.796;11.978;2023-02-15T08:50:42;11.27;;;10.17;;
25349;SDS011;13302;48.796;11.978;2023-02-15T08:53:29;9.97;;;9.07;;
25349;SDS011;13302;48.796;11.978;2023-02-15T08:56:16;9.83;;;8.93;;
25349;SDS011;13302;48.796;11.978;2023-02-15T08:59:13;10.50;;;9.40;;
25349;SDS011;13302;48.796;11.978;2023-02-15T09:02:02;10.77;;;9.77;;
25349;SDS011;13302;48.796;11.978;2023-02-15T09:04:49;10.33;;;9.40;;
25349;SDS011;13302;48.796;11.978;2023-02-15T09:07:38;11.00;;;9.90;;
25349;SDS011;13302;48.796;11.978;2023-02-15T09:10:25;12.17;;;10.87;;
25349;SDS011;13302;48.796;11.978;2023-02-15T09:13:12;11.20;;;10.00;;
25349;SDS011;13302;48.796;11.978;2023-02-15T09:16:01;11.47;;;10.37;;
25349;SDS011;13302;48.796;11.978;2023-02-15T09:18:49;10.00;;;9.00;;
25349;SDS011;13302;48.796;11.978;2023-02-15T09:21:37;10.03;;;9.03;;
25349;SDS011;13302;48.796;11.978;2023-02-15T09:24:24;9.83;;;8.83;;
25349;SDS011;13302;48.796;11.978;2023-02-15T09:27:11;9.20;;;8.40;;
25349;SDS011;13302;48.796;11.978;2023-02-15T09:29:59;10.03;;;9.03;;
25349;SDS011;13302;48.796;11.978;2023-02-15T09:32:46;10.90;;;9.80;;
25349;SDS011;13302;48.796;11.978;2023-02-15T09:35:34;10.00;;;9.10;;
25349;SDS011;13302;48.796;11.978;2023-02-15T09:38:20;10.70;;;9.60;;
25349;SDS011;13302;48.796;11.978;2023-02-15T09:56:28;12.60;;;11.40;;
25349;SDS011;13302;48.796;11.978;2023-02-15T09:59:19;12.80;;;11.40;;
25349;SDS011;13302;48.796;11.978;2023-02-15T10:08:31;14.67;;;12.50;;
25349;SDS011;13302;48.796;11.978;2023-02-15T10:11:52;15.13;;;13.03;;
25349;SDS011;13302;48.796;11.978;2023-02-15T10:21:26;13.27;;;11.87;;
25349;SDS011;13302;48.796;11.978;2023-02-15T10:24:14;14.03;;;12.53;;
25349;SDS011;13302;48.796;11.978;2023-02-15T10:27:11;14.30;;;12.80;;
25349;SDS011;13302;48.796;11.978;2023-02-15T10:33:01;13.93;;;12.43;;
25349;SDS011;13302;48.796;11.978;2023-02-15T10:39:02;15.03;;;13.33;;
25349;SDS011;13302;48.796;11.978;2023-02-15T10:48:22;16.27;;;14.50;;
25349;SDS011;13302;48.796;11.978;2023-02-15T10:54:36;15.63;;;13.93;;
25349;SDS011;13302;48.796;11.978;2023-02-15T11:01:07;15.63;;;13.90;;
25349;SDS011;13302;48.796;11.978;2023-02-15T11:07:30;18.13;;;15.17;;
25349;SDS011;13302;48.796;11.978;2023-02-15T11:13:39;17.60;;;14.73;;
25349;SDS011;13302;48.796;11.978;2023-02-15T11:16:34;17.10;;;15.30;;
25349;SDS011;13302;48.796;11.978;2023-02-15T11:19:32;16.17;;;14.27;;
25349;SDS011;13302;48.796;11.978;2023-02-15T11:22:22;17.43;;;15.63;;
25349;SDS011;13302;48.796;11.978;2023-02-15T11:25:21;17.37;;;15.53;;
25349;SDS011;13302;48.796;11.978;2023-02-15T11:28:19;17.80;;;15.90;;
25349;SDS011;13302;48.796;11.978;2023-02-15T11:31:18;19.33;;;17.17;;
25349;SDS011;13302;48.796;11.978;2023-02-15T11:34:12;18.80;;;16.47;;
25349;SDS011;13302;48.796;11.978;2023-02-15T11:37:22;19.93;;;17.83;;
25349;SDS011;13302;48.796;11.978;2023-02-15T11:40:23;20.10;;;17.13;;
25349;SDS011;13302;48.796;11.978;2023-02-15T11:43:16;17.33;;;15.30;;
25349;SDS011;13302;48.796;11.978;2023-02-15T11:46:11;17.43;;;15.63;;
25349;SDS011;13302;48.796;11.978;2023-02-15T11:48:59;17.93;;;16.13;;
25349;SDS011;13302;48.796;11.978;2023-02-15T11:51:46;17.67;;;15.83;;
25349;SDS011;13302;48.796;11.978;2023-02-15T11:54:35;17.37;;;15.57;;
25349;SDS011;13302;48.796;11.978;2023-02-15T12:00:34;15.23;;;13.63;;
25349;SDS011;13302;48.796;11.978;2023-02-15T12:03:26;16.07;;;14.47;;
25349;SDS011;13302;48.796;11.978;2023-02-15T12:09:24;15.57;;;13.97;;
25349;SDS011;13302;48.796;11.978;2023-02-15T12:12:22;15.10;;;13.50;;
25349;SDS011;13302;48.796;11.978;2023-02-15T12:15:12;15.13;;;13.67;;
25349;SDS011;13302;48.796;11.978;2023-02-15T12:18:00;14.17;;;12.70;;
25349;SDS011;13302;48.796;11.978;2023-02-15T12:20:47;16.00;;;14.30;;
25349;SDS011;13302;48.796;11.978;2023-02-15T12:23:39;15.97;;;14.27;;
25349;SDS011;13302;48.796;11.978;2023-02-15T12:26:34;14.80;;;12.67;;
25349;SDS011;13302;48.796;11.978;2023-02-15T12:29:23;14.20;;;12.70;;
25349;SDS011;13302;48.796;11.978;2023-02-15T12:32:24;15.60;;;13.83;;
25349;SDS011;13302;48.796;11.978;2023-02-15T12:35:18;13.63;;;12.23;;
25349;SDS011;13302;48.796;11.978;2023-02-15T12:41:02;13.10;;;11.80;;
25349;SDS011;13302;48.796;11.978;2023-02-15T12:44:17;12.97;;;11.67;;
25349;SDS011;13302;48.796;11.978;2023-02-15T12:50:11;14.73;;;13.13;;
25349;SDS011;13302;48.796;11.978;2023-02-15T12:53:18;13.33;;;12.00;;
25349;SDS011;13302;48.796;11.978;2023-02-15T12:56:08;13.97;;;12.57;;
25349;SDS011;13302;48.796;11.978;2023-02-15T12:59:04;14.47;;;13.07;;
25349;SDS011;13302;48.796;11.978;2023-02-15T13:01:52;14.17;;;12.77;;
25349;SDS011;13302;48.796;11.978;2023-02-15T13:04:47;14.20;;;12.80;;
25349;SDS011;13302;48.796;11.978;2023-02-15T13:07:36;14.80;;;13.23;;
25349;SDS011;13302;48.796;11.978;2023-02-15T13:10:31;14.17;;;12.67;;
25349;SDS011;13302;48.796;11.978;2023-02-15T13:13:24;13.67;;;12.10;;
25349;SDS011;13302;48.796;11.978;2023-02-15T13:16:13;13.93;;;12.53;;
25349;SDS011;13302;48.796;11.978;2023-02-15T13:22:15;14.27;;;12.87;;
25349;SDS011;13302;48.796;11.978;2023-02-15T13:25:10;13.97;;;12.57;;
25349;SDS011;13302;48.796;11.978;2023-02-15T13:28:01;13.80;;;12.40;;
25349;SDS011;13302;48.796;11.978;2023-02-15T13:30:49;14.70;;;13.13;;
25349;SDS011;13302;48.796;11.978;2023-02-15T13:33:37;15.00;;;13.50;;
25349;SDS011;13302;48.796;11.978;2023-02-15T13:42:30;14.50;;;13.03;;
25349;SDS011;13302;48.796;11.978;2023-02-15T13:45:28;15.53;;;13.67;;
25349;SDS011;13302;48.796;11.978;2023-02-15T13:48:26;15.27;;;12.93;;
25349;SDS011;13302;48.796;11.978;2023-02-15T13:51:40;14.00;;;12.60;;
25349;SDS011;13302;48.796;11.978;2023-02-15T13:54:33;14.67;;;13.17;;
25349;SDS011;13302;48.796;11.978;2023-02-15T13:57:36;14.73;;;13.23;;
25349;SDS011;13302;48.796;11.978;2023-02-15T14:00:56;14.87;;;13.30;;
25349;SDS011;13302;48.796;11.978;2023-02-15T14:04:06;14.10;;;12.70;;
25349;SDS011;13302;48.796;11.978;2023-02-15T14:19:19;14.67;;;13.17;;
25349;SDS011;13302;48.796;11.978;2023-02-15T14:28:05;14.03;;;12.63;;
25349;SDS011;13302;48.796;11.978;2023-02-15T14:31:11;13.83;;;12.53;;
25349;SDS011;13302;48.796;11.978;2023-02-15T14:34:00;12.93;;;11.63;;
25349;SDS011;13302;48.796;11.978;2023-02-15T14:36:47;14.40;;;12.70;;
25349;SDS011;13302;48.796;11.978;2023-02-15T14:39:42;15.33;;;13.77;;
25349;SDS011;13302;48.796;11.978;2023-02-15T14:42:58;15.07;;;13.50;;
25349;SDS011;13302;48.796;11.978;2023-02-15T14:49:12;14.33;;;12.83;;
25349;SDS011;13302;48.796;11.978;2023-02-15T14:57:36;15.60;;;13.87;;
25349;SDS011;13302;48.796;11.978;2023-02-15T15:00:33;15.03;;;13.13;;
25349;SDS011;13302;48.796;11.978;2023-02-15T15:03:24;13.80;;;12.40;;
25349;SDS011;13302;48.796;11.978;2023-02-15T15:06:23;15.80;;;14.10;;
25349;SDS011;13302;48.796;11.978;2023-02-15T15:09:24;15.37;;;13.80;;
25349;SDS011;13302;48.796;11.978;2023-02-15T15:12:36;15.00;;;13.57;;
25349;SDS011;13302;48.796;11.978;2023-02-15T15:27:42;13.70;;;12.30;;
25349;SDS011;13302;48.796;11.978;2023-02-15T15:34:15;13.13;;;11.73;;
25349;SDS011;13302;48.796;11.978;2023-02-15T15:37:48;14.30;;;12.13;;
25349;SDS011;13302;48.796;11.978;2023-02-15T15:43:34;14.93;;;13.33;;
25349;SDS011;13302;48.796;11.978;2023-02-15T15:49:30;14.60;;;13.00;;
25349;SDS011;13302;48.796;11.978;2023-02-15T15:52:20;14.57;;;13.13;;
25349;SDS011;13302;48.796;11.978;2023-02-15T15:55:14;15.40;;;13.80;;
25349;SDS011;13302;48.796;11.978;2023-02-15T15:58:04;14.53;;;13.13;;
25349;SDS011;13302;48.796;11.978;2023-02-15T16:01:02;14.60;;;13.13;;
25349;SDS011;13302;48.796;11.978;2023-02-15T16:03:56;15.47;;;13.87;;
25349;SDS011;13302;48.796;11.978;2023-02-15T16:06:44;16.07;;;14.07;;
25349;SDS011;13302;48.796;11.978;2023-02-15T16:09:32;15.43;;;13.83;;
25349;SDS011;13302;48.796;11.978;2023-02-15T16:12:19;17.07;;;15.23;;
25349;SDS011;13302;48.796;11.978;2023-02-15T16:15:25;16.63;;;14.83;;
25349;SDS011;13302;48.796;11.978;2023-02-15T16:18:22;17.73;;;15.83;;
25349;SDS011;13302;48.796;11.978;2023-02-15T16:21:19;17.30;;;15.27;;
25349;SDS011;13302;48.796;11.978;2023-02-15T16:24:16;18.00;;;15.97;;
25349;SDS011;13302;48.796;11.978;2023-02-15T16:27:39;17.83;;;15.70;;
25349;SDS011;13302;48.796;11.978;2023-02-15T16:30:32;19.17;;;16.03;;
25349;SDS011;13302;48.796;11.978;2023-02-15T16:33:20;16.93;;;15.17;;
25349;SDS011;13302;48.796;11.978;2023-02-15T16:39:19;18.33;;;16.33;;
25349;SDS011;13302;48.796;11.978;2023-02-15T16:42:07;18.07;;;16.17;;
25349;SDS011;13302;48.796;11.978;2023-02-15T16:44:57;19.20;;;17.10;;
25349;SDS011;13302;48.796;11.978;2023-02-15T16:47:51;18.70;;;16.60;;
25349;SDS011;13302;48.796;11.978;2023-02-15T16:50:45;18.87;;;16.87;;
25349;SDS011;13302;48.796;11.978;2023-02-15T16:53:34;18.47;;;16.43;;
25349;SDS011;13302;48.796;11.978;2023-02-15T16:56:24;20.27;;;16.40;;
25349;SDS011;13302;48.796;11.978;2023-02-15T17:02:25;17.27;;;15.47;;
25349;SDS011;13302;48.796;11.978;2023-02-15T17:05:45;18.33;;;15.87;;
25349;SDS011;13302;48.796;11.978;2023-02-15T17:08:41;21.07;;;17.33;;
25349;SDS011;13302;48.796;11.978;2023-02-15T17:11:35;20.00;;;17.00;;
25349;SDS011;13302;48.796;11.978;2023-02-15T17:14:26;21.07;;;17.70;;
25349;SDS011;13302;48.796;11.978;2023-02-15T17:17:15;19.70;;;16.97;;
25349;SDS011;13302;48.796;11.978;2023-02-15T17:20:02;19.53;;;17.20;;
25349;SDS011;13302;48.796;11.978;2023-02-15T17:22:50;20.57;;;17.87;;
25349;SDS011;13302;48.796;11.978;2023-02-15T17:25:38;19.50;;;16.93;;
25349;SDS011;13302;48.796;11.978;2023-02-15T17:28:27;21.17;;;17.80;;
25349;SDS011;13302;48.796;11.978;2023-02-15T17:31:17;20.83;;;17.50;;
25349;SDS011;13302;48.796;11.978;2023-02-15T17:34:08;21.10;;;18.33;;
25349;SDS011;13302;48.796;11.978;2023-02-15T17:40:28;21.77;;;17.57;;
25349;SDS011;13302;48.796;11.978;2023-02-15T17:43:16;21.93;;;18.33;;
25349;SDS011;13302;48.796;11.978;2023-02-15T17:46:04;21.87;;;17.90;;
25349;SDS011;13302;48.796;11.978;2023-02-15T17:48:52;20.73;;;17.97;;
25349;SDS011;13302;48.796;11.978;2023-02-15T17:51:41;22.20;;;18.13;;
25349;SDS011;13302;48.796;11.978;2023-02-15T17:54:28;21.93;;;18.23;;
25349;SDS011;13302;48.796;11.978;2023-02-15T17:57:34;21.27;;;18.37;;
25349;SDS011;13302;48.796;11.978;2023-02-15T18:00:21;21.63;;;17.77;;
25349;SDS011;13302;48.796;11.978;2023-02-15T18:03:38;21.37;;;17.73;;
25349;SDS011;13302;48.796;11.978;2023-02-15T18:06:52;20.90;;;17.57;;
25349;SDS011;13302;48.796;11.978;2023-02-15T18:09:57;21.30;;;17.93;;
25349;SDS011;13302;48.796;11.978;2023-02-15T18:13:03;21.57;;;18.33;;
25349;SDS011;13302;48.796;11.978;2023-02-15T18:15:50;18.90;;;16.77;;
25349;SDS011;13302;48.796;11.978;2023-02-15T18:18:37;22.10;;;17.90;;
25349;SDS011;13302;48.796;11.978;2023-02-15T18:21:24;20.80;;;17.27;;
25349;SDS011;13302;48.796;11.978;2023-02-15T18:24:19;20.07;;;16.83;;
25349;SDS011;13302;48.796;11.978;2023-02-15T18:27:11;20.23;;;17.23;;
25349;SDS011;13302;48.796;11.978;2023-02-15T18:29:58;20.80;;;17.57;;
25349;SDS011;13302;48.796;11.978;2023-02-15T18:32:46;19.50;;;17.27;;
25349;SDS011;13302;48.796;11.978;2023-02-15T18:35:36;19.47;;;16.97;;
25349;SDS011;13302;48.796;11.978;2023-02-15T18:38:24;19.40;;;16.37;;
25349;SDS011;13302;48.796;11.978;2023-02-15T18:41:18;20.10;;;17.53;;
25349;SDS011;13302;48.796;11.978;2023-02-15T18:44:12;19.43;;;16.83;;
25349;SDS011;13302;48.796;11.978;2023-02-15T18:46:59;22.17;;;17.93;;
25349;SDS011;13302;48.796;11.978;2023-02-15T18:49:46;23.00;;;18.87;;
25349;SDS011;13302;48.796;11.978;2023-02-15T18:52:36;19.90;;;16.67;;
25349;SDS011;13302;48.796;11.978;2023-02-15T18:55:24;22.47;;;18.03;;
25349;SDS011;13302;48.796;11.978;2023-02-15T18:58:17;20.17;;;17.33;;
25349;SDS011;13302;48.796;11.978;2023-02-15T19:01:09;23.50;;;17.97;;
25349;SDS011;13302;48.796;11.978;2023-02-15T19:04:02;22.57;;;18.17;;
25349;SDS011;13302;48.796;11.978;2023-02-15T19:06:49;21.87;;;18.53;;
25349;SDS011;13302;48.796;11.978;2023-02-15T19:09:36;21.23;;;17.40;;
25349;SDS011;13302;48.796;11.978;2023-02-15T19:12:25;22.57;;;18.47;;
25349;SDS011;13302;48.796;11.978;2023-02-15T19:15:17;23.60;;;19.47;;